sensor_id;sensor_type;location;lat;lon;timestamp;P1;durP1;ratioP1;P2;durP2;ratioP2
59828;SDS011;45708;51.848;107.620;2023-07-31T00:04:11;7.72;;;3.60;;
59828;SDS011;45708;51.848;107.620;2023-07-31T00:09:12;8.02;;;4.22;;
59828;SDS011;45708;51.848;107.620;2023-07-31T00:14:12;10.95;;;4.57;;
59828;SDS011;45708;51.848;107.620;2023-07-31T00:19:13;10.63;;;4.35;;
59828;SDS011;45708;51.848;107.620;2023-07-31T00:24:14;8.70;;;4.55;;
59828;SDS011;45708;51.848;107.620;2023-07-31T00:29:15;5.80;;;4.07;;
59828;SDS011;45708;51.848;107.620;2023-07-31T00:34:16;5.68;;;4.55;;
59828;SDS011;45708;51.848;107.620;2023-07-31T00:39:17;6.38;;;3.95;;
59828;SDS011;45708;51.848;107.620;2023-07-31T00:44:18;8.45;;;3.17;;
59828;SDS011;45708;51.848;107.620;2023-07-31T00:49:20;7.00;;;4.13;;
59828;SDS011;45708;51.848;107.620;2023-07-31T00:54:21;4.10;;;3.15;;
59828;SDS011;45708;51.848;107.620;2023-07-31T00:59:22;12.45;;;11.07;;
59828;SDS011;45708;51.848;107.620;2023-07-31T01:04:23;6.53;;;3.75;;
59828;SDS011;45708;51.848;107.620;2023-07-31T01:14:30;12.20;;;4.23;;
59828;SDS011;45708;51.848;107.620;2023-07-31T01:19:31;4.80;;;3.70;;
59828;SDS011;45708;51.848;107.620;2023-07-31T01:24:47;7.57;;;3.67;;
59828;SDS011;45708;51.848;107.620;2023-07-31T01:29:56;7.45;;;4.00;;
59828;SDS011;45708;51.848;107.620;2023-07-31T01:35:03;5.45;;;3.08;;
59828;SDS011;45708;51.848;107.620;2023-07-31T01:40:05;5.85;;;4.30;;
59828;SDS011;45708;51.848;107.620;2023-07-31T01:45:07;5.63;;;3.50;;
59828;SDS011;45708;51.848;107.620;2023-07-31T01:50:08;6.80;;;3.47;;
59828;SDS011;45708;51.848;107.620;2023-07-31T01:55:10;6.40;;;4.10;;
59828;SDS011;45708;51.848;107.620;2023-07-31T02:00:10;11.55;;;4.65;;
59828;SDS011;45708;51.848;107.620;2023-07-31T02:05:11;9.38;;;4.63;;
59828;SDS011;45708;51.848;107.620;2023-07-31T02:10:12;7.82;;;3.75;;
59828;SDS011;45708;51.848;107.620;2023-07-31T02:15:13;9.48;;;5.10;;
59828;SDS011;45708;51.848;107.620;2023-07-31T02:20:14;7.85;;;5.28;;
59828;SDS011;45708;51.848;107.620;2023-07-31T02:25:15;14.20;;;5.45;;
59828;SDS011;45708;51.848;107.620;2023-07-31T02:30:16;6.65;;;3.88;;
59828;SDS011;45708;51.848;107.620;2023-07-31T02:35:17;8.57;;;3.53;;
59828;SDS011;45708;51.848;107.620;2023-07-31T02:40:17;7.40;;;4.00;;
59828;SDS011;45708;51.848;107.620;2023-07-31T02:45:18;6.32;;;4.07;;
59828;SDS011;45708;51.848;107.620;2023-07-31T02:50:19;7.18;;;3.55;;
59828;SDS011;45708;51.848;107.620;2023-07-31T02:55:20;7.88;;;4.43;;
59828;SDS011;45708;51.848;107.620;2023-07-31T03:00:21;4.50;;;4.00;;
59828;SDS011;45708;51.848;107.620;2023-07-31T03:05:21;5.75;;;3.50;;
59828;SDS011;45708;51.848;107.620;2023-07-31T03:10:22;6.50;;;3.17;;
59828;SDS011;45708;51.848;107.620;2023-07-31T03:15:23;5.80;;;3.33;;
59828;SDS011;45708;51.848;107.620;2023-07-31T03:20:24;9.20;;;4.35;;
59828;SDS011;45708;51.848;107.620;2023-07-31T03:25:25;9.38;;;3.70;;
59828;SDS011;45708;51.848;107.620;2023-07-31T03:30:26;3.03;;;2.47;;
59828;SDS011;45708;51.848;107.620;2023-07-31T03:35:27;8.63;;;4.25;;
59828;SDS011;45708;51.848;107.620;2023-07-31T03:40:28;9.57;;;4.15;;
59828;SDS011;45708;51.848;107.620;2023-07-31T03:45:28;7.68;;;3.40;;
59828;SDS011;45708;51.848;107.620;2023-07-31T03:50:29;6.85;;;4.07;;
59828;SDS011;45708;51.848;107.620;2023-07-31T03:55:30;5.10;;;2.80;;
59828;SDS011;45708;51.848;107.620;2023-07-31T04:00:31;4.68;;;3.03;;
59828;SDS011;45708;51.848;107.620;2023-07-31T04:05:32;5.03;;;3.22;;
59828;SDS011;45708;51.848;107.620;2023-07-31T04:10:33;4.25;;;2.67;;
59828;SDS011;45708;51.848;107.620;2023-07-31T04:15:34;3.80;;;2.17;;
59828;SDS011;45708;51.848;107.620;2023-07-31T04:20:34;8.18;;;2.20;;
59828;SDS011;45708;51.848;107.620;2023-07-31T04:25:35;5.32;;;2.58;;
59828;SDS011;45708;51.848;107.620;2023-07-31T04:30:36;1.85;;;1.60;;
59828;SDS011;45708;51.848;107.620;2023-07-31T04:35:37;4.53;;;2.05;;
59828;SDS011;45708;51.848;107.620;2023-07-31T04:40:38;6.75;;;2.33;;
59828;SDS011;45708;51.848;107.620;2023-07-31T04:45:38;3.22;;;1.50;;
59828;SDS011;45708;51.848;107.620;2023-07-31T04:50:39;3.03;;;2.35;;
59828;SDS011;45708;51.848;107.620;2023-07-31T04:55:40;6.50;;;2.95;;
59828;SDS011;45708;51.848;107.620;2023-07-31T05:00:41;5.18;;;3.60;;
59828;SDS011;45708;51.848;107.620;2023-07-31T05:05:42;3.78;;;3.00;;
59828;SDS011;45708;51.848;107.620;2023-07-31T05:10:43;5.05;;;2.40;;
59828;SDS011;45708;51.848;107.620;2023-07-31T05:15:44;3.63;;;2.30;;
59828;SDS011;45708;51.848;107.620;2023-07-31T05:20:45;5.18;;;2.45;;
59828;SDS011;45708;51.848;107.620;2023-07-31T05:25:46;4.47;;;2.20;;
59828;SDS011;45708;51.848;107.620;2023-07-31T05:30:47;6.90;;;3.50;;
59828;SDS011;45708;51.848;107.620;2023-07-31T05:35:48;4.10;;;2.05;;
59828;SDS011;45708;51.848;107.620;2023-07-31T05:40:48;6.55;;;2.92;;
59828;SDS011;45708;51.848;107.620;2023-07-31T05:45:50;3.63;;;2.67;;
59828;SDS011;45708;51.848;107.620;2023-07-31T05:50:51;4.53;;;2.50;;
59828;SDS011;45708;51.848;107.620;2023-07-31T05:55:52;4.88;;;3.10;;
59828;SDS011;45708;51.848;107.620;2023-07-31T06:00:53;4.63;;;2.38;;
59828;SDS011;45708;51.848;107.620;2023-07-31T06:05:54;5.47;;;3.90;;
59828;SDS011;45708;51.848;107.620;2023-07-31T06:10:57;5.45;;;2.53;;
59828;SDS011;45708;51.848;107.620;2023-07-31T06:15:57;6.50;;;2.30;;
59828;SDS011;45708;51.848;107.620;2023-07-31T06:20:58;2.83;;;1.83;;
59828;SDS011;45708;51.848;107.620;2023-07-31T06:25:59;6.07;;;2.35;;
59828;SDS011;45708;51.848;107.620;2023-07-31T06:31:00;8.02;;;4.97;;
59828;SDS011;45708;51.848;107.620;2023-07-31T06:36:02;3.55;;;2.38;;
59828;SDS011;45708;51.848;107.620;2023-07-31T06:41:02;2.78;;;2.13;;
59828;SDS011;45708;51.848;107.620;2023-07-31T06:46:06;4.55;;;2.40;;
59828;SDS011;45708;51.848;107.620;2023-07-31T06:51:07;6.80;;;2.78;;
59828;SDS011;45708;51.848;107.620;2023-07-31T06:56:08;2.95;;;2.53;;
59828;SDS011;45708;51.848;107.620;2023-07-31T07:01:09;3.17;;;2.17;;
59828;SDS011;45708;51.848;107.620;2023-07-31T07:06:11;3.78;;;2.70;;
59828;SDS011;45708;51.848;107.620;2023-07-31T07:11:12;3.47;;;2.88;;
59828;SDS011;45708;51.848;107.620;2023-07-31T07:16:13;6.18;;;2.97;;
59828;SDS011;45708;51.848;107.620;2023-07-31T07:21:14;8.07;;;2.58;;
59828;SDS011;45708;51.848;107.620;2023-07-31T07:26:14;4.80;;;2.63;;
59828;SDS011;45708;51.848;107.620;2023-07-31T07:31:15;4.90;;;2.90;;
59828;SDS011;45708;51.848;107.620;2023-07-31T07:36:16;6.80;;;3.25;;
59828;SDS011;45708;51.848;107.620;2023-07-31T07:41:17;4.93;;;3.58;;
59828;SDS011;45708;51.848;107.620;2023-07-31T07:46:18;7.43;;;2.60;;
59828;SDS011;45708;51.848;107.620;2023-07-31T07:51:18;2.22;;;2.03;;
59828;SDS011;45708;51.848;107.620;2023-07-31T07:56:19;7.18;;;2.95;;
59828;SDS011;45708;51.848;107.620;2023-07-31T08:01:20;4.18;;;2.30;;
59828;SDS011;45708;51.848;107.620;2023-07-31T08:06:21;4.93;;;2.95;;
59828;SDS011;45708;51.848;107.620;2023-07-31T08:11:22;4.57;;;3.30;;
59828;SDS011;45708;51.848;107.620;2023-07-31T08:16:23;5.25;;;2.60;;
59828;SDS011;45708;51.848;107.620;2023-07-31T08:21:24;5.97;;;4.40;;
59828;SDS011;45708;51.848;107.620;2023-07-31T08:26:25;3.90;;;3.25;;
59828;SDS011;45708;51.848;107.620;2023-07-31T08:31:25;5.28;;;2.53;;
59828;SDS011;45708;51.848;107.620;2023-07-31T08:36:26;4.15;;;2.70;;
59828;SDS011;45708;51.848;107.620;2023-07-31T08:41:27;4.13;;;2.33;;
59828;SDS011;45708;51.848;107.620;2023-07-31T08:46:28;2.53;;;2.10;;
59828;SDS011;45708;51.848;107.620;2023-07-31T08:51:30;6.22;;;3.63;;
59828;SDS011;45708;51.848;107.620;2023-07-31T08:56:32;6.55;;;3.83;;
59828;SDS011;45708;51.848;107.620;2023-07-31T09:01:35;3.47;;;2.80;;
59828;SDS011;45708;51.848;107.620;2023-07-31T09:06:41;3.90;;;2.70;;
59828;SDS011;45708;51.848;107.620;2023-07-31T09:11:44;3.80;;;2.67;;
59828;SDS011;45708;51.848;107.620;2023-07-31T09:16:51;7.20;;;3.13;;
59828;SDS011;45708;51.848;107.620;2023-07-31T09:21:56;7.60;;;2.72;;
59828;SDS011;45708;51.848;107.620;2023-07-31T09:26:57;3.17;;;1.85;;
59828;SDS011;45708;51.848;107.620;2023-07-31T09:31:59;2.80;;;1.83;;
59828;SDS011;45708;51.848;107.620;2023-07-31T09:37:01;5.00;;;2.95;;
59828;SDS011;45708;51.848;107.620;2023-07-31T09:42:02;5.30;;;4.80;;
59828;SDS011;45708;51.848;107.620;2023-07-31T09:47:03;3.55;;;1.77;;
59828;SDS011;45708;51.848;107.620;2023-07-31T09:52:04;3.63;;;1.92;;
59828;SDS011;45708;51.848;107.620;2023-07-31T09:57:12;5.60;;;2.53;;
59828;SDS011;45708;51.848;107.620;2023-07-31T10:02:15;5.95;;;1.60;;
59828;SDS011;45708;51.848;107.620;2023-07-31T10:07:24;1.67;;;1.10;;
59828;SDS011;45708;51.848;107.620;2023-07-31T10:12:26;4.50;;;2.17;;
59828;SDS011;45708;51.848;107.620;2023-07-31T10:17:27;5.07;;;2.15;;
59828;SDS011;45708;51.848;107.620;2023-07-31T10:22:30;4.88;;;1.40;;
59828;SDS011;45708;51.848;107.620;2023-07-31T10:27:31;6.07;;;3.78;;
59828;SDS011;45708;51.848;107.620;2023-07-31T10:32:35;7.53;;;1.73;;
59828;SDS011;45708;51.848;107.620;2023-07-31T10:37:39;11.52;;;3.80;;
59828;SDS011;45708;51.848;107.620;2023-07-31T10:42:51;4.90;;;3.67;;
59828;SDS011;45708;51.848;107.620;2023-07-31T10:53:24;9.52;;;2.67;;
59828;SDS011;45708;51.848;107.620;2023-07-31T10:58:26;7.40;;;2.20;;
59828;SDS011;45708;51.848;107.620;2023-07-31T11:03:41;9.45;;;2.33;;
59828;SDS011;45708;51.848;107.620;2023-07-31T11:08:50;8.80;;;1.93;;
59828;SDS011;45708;51.848;107.620;2023-07-31T11:13:51;1.67;;;1.13;;
59828;SDS011;45708;51.848;107.620;2023-07-31T11:18:53;5.80;;;1.88;;
59828;SDS011;45708;51.848;107.620;2023-07-31T11:23:57;1.83;;;1.13;;
59828;SDS011;45708;51.848;107.620;2023-07-31T11:28:58;1.35;;;1.25;;
59828;SDS011;45708;51.848;107.620;2023-07-31T11:34:05;2.22;;;1.35;;
59828;SDS011;45708;51.848;107.620;2023-07-31T11:39:09;1.48;;;1.02;;
59828;SDS011;45708;51.848;107.620;2023-07-31T11:44:11;3.42;;;1.83;;
59828;SDS011;45708;51.848;107.620;2023-07-31T11:49:11;4.85;;;1.27;;
59828;SDS011;45708;51.848;107.620;2023-07-31T11:54:12;5.35;;;1.35;;
59828;SDS011;45708;51.848;107.620;2023-07-31T11:59:13;5.15;;;2.03;;
59828;SDS011;45708;51.848;107.620;2023-07-31T12:04:14;3.20;;;1.25;;
59828;SDS011;45708;51.848;107.620;2023-07-31T12:09:15;1.15;;;0.95;;
59828;SDS011;45708;51.848;107.620;2023-07-31T12:14:23;2.03;;;1.27;;
59828;SDS011;45708;51.848;107.620;2023-07-31T12:19:24;1.73;;;1.27;;
59828;SDS011;45708;51.848;107.620;2023-07-31T12:24:26;2.55;;;1.13;;
59828;SDS011;45708;51.848;107.620;2023-07-31T12:29:38;3.00;;;1.30;;
59828;SDS011;45708;51.848;107.620;2023-07-31T12:34:42;1.63;;;1.00;;
59828;SDS011;45708;51.848;107.620;2023-07-31T12:39:43;1.42;;;1.02;;
59828;SDS011;45708;51.848;107.620;2023-07-31T12:44:44;6.43;;;1.25;;
59828;SDS011;45708;51.848;107.620;2023-07-31T12:49:44;8.55;;;2.00;;
59828;SDS011;45708;51.848;107.620;2023-07-31T12:54:45;4.38;;;1.65;;
59828;SDS011;45708;51.848;107.620;2023-07-31T12:59:47;1.30;;;1.20;;
59828;SDS011;45708;51.848;107.620;2023-07-31T13:04:49;1.95;;;1.40;;
59828;SDS011;45708;51.848;107.620;2023-07-31T13:09:50;2.63;;;1.63;;
59828;SDS011;45708;51.848;107.620;2023-07-31T13:14:51;3.30;;;2.13;;
59828;SDS011;45708;51.848;107.620;2023-07-31T13:19:52;6.90;;;2.42;;
59828;SDS011;45708;51.848;107.620;2023-07-31T13:24:53;6.25;;;1.67;;
59828;SDS011;45708;51.848;107.620;2023-07-31T13:29:53;6.93;;;2.05;;
59828;SDS011;45708;51.848;107.620;2023-07-31T13:34:54;2.90;;;1.75;;
59828;SDS011;45708;51.848;107.620;2023-07-31T13:39:55;2.80;;;1.88;;
59828;SDS011;45708;51.848;107.620;2023-07-31T13:44:56;1.15;;;1.05;;
59828;SDS011;45708;51.848;107.620;2023-07-31T13:49:57;4.40;;;2.40;;
59828;SDS011;45708;51.848;107.620;2023-07-31T13:54:57;6.78;;;2.10;;
59828;SDS011;45708;51.848;107.620;2023-07-31T13:59:58;2.63;;;1.17;;
59828;SDS011;45708;51.848;107.620;2023-07-31T14:04:59;5.13;;;2.00;;
59828;SDS011;45708;51.848;107.620;2023-07-31T14:10:00;3.90;;;1.98;;
59828;SDS011;45708;51.848;107.620;2023-07-31T14:15:01;6.20;;;2.13;;
59828;SDS011;45708;51.848;107.620;2023-07-31T14:20:02;2.75;;;1.65;;
59828;SDS011;45708;51.848;107.620;2023-07-31T14:25:03;5.38;;;1.50;;
59828;SDS011;45708;51.848;107.620;2023-07-31T14:30:04;3.03;;;1.60;;
59828;SDS011;45708;51.848;107.620;2023-07-31T14:35:06;3.08;;;2.22;;
59828;SDS011;45708;51.848;107.620;2023-07-31T14:40:07;3.50;;;1.83;;
59828;SDS011;45708;51.848;107.620;2023-07-31T14:45:09;4.15;;;2.13;;
59828;SDS011;45708;51.848;107.620;2023-07-31T14:50:10;2.38;;;1.30;;
59828;SDS011;45708;51.848;107.620;2023-07-31T14:55:11;1.30;;;1.20;;
59828;SDS011;45708;51.848;107.620;2023-07-31T15:00:12;1.30;;;1.15;;
59828;SDS011;45708;51.848;107.620;2023-07-31T15:05:13;4.75;;;1.58;;
59828;SDS011;45708;51.848;107.620;2023-07-31T15:10:14;3.67;;;1.50;;
59828;SDS011;45708;51.848;107.620;2023-07-31T15:15:15;3.38;;;1.60;;
59828;SDS011;45708;51.848;107.620;2023-07-31T15:20:16;2.78;;;1.67;;
59828;SDS011;45708;51.848;107.620;2023-07-31T15:25:16;1.77;;;1.40;;
59828;SDS011;45708;51.848;107.620;2023-07-31T15:30:17;4.22;;;1.52;;
59828;SDS011;45708;51.848;107.620;2023-07-31T15:35:18;4.78;;;1.67;;
59828;SDS011;45708;51.848;107.620;2023-07-31T15:40:19;2.03;;;1.58;;
59828;SDS011;45708;51.848;107.620;2023-07-31T15:45:20;2.28;;;1.25;;
59828;SDS011;45708;51.848;107.620;2023-07-31T15:50:20;1.00;;;0.77;;
59828;SDS011;45708;51.848;107.620;2023-07-31T15:55:21;0.95;;;0.90;;
59828;SDS011;45708;51.848;107.620;2023-07-31T16:00:22;3.53;;;2.05;;
59828;SDS011;45708;51.848;107.620;2023-07-31T16:05:23;2.35;;;1.02;;
59828;SDS011;45708;51.848;107.620;2023-07-31T16:10:24;3.58;;;1.30;;
59828;SDS011;45708;51.848;107.620;2023-07-31T16:15:24;3.22;;;2.08;;
59828;SDS011;45708;51.848;107.620;2023-07-31T16:20:25;1.08;;;0.93;;
59828;SDS011;45708;51.848;107.620;2023-07-31T16:25:26;4.95;;;1.52;;
59828;SDS011;45708;51.848;107.620;2023-07-31T16:30:27;1.65;;;1.55;;
59828;SDS011;45708;51.848;107.620;2023-07-31T16:35:28;1.65;;;1.13;;
59828;SDS011;45708;51.848;107.620;2023-07-31T16:40:29;2.88;;;1.67;;
59828;SDS011;45708;51.848;107.620;2023-07-31T16:45:30;1.60;;;1.50;;
59828;SDS011;45708;51.848;107.620;2023-07-31T16:50:31;3.95;;;1.50;;
59828;SDS011;45708;51.848;107.620;2023-07-31T16:55:32;1.67;;;1.40;;
59828;SDS011;45708;51.848;107.620;2023-07-31T17:00:33;2.42;;;1.40;;
59828;SDS011;45708;51.848;107.620;2023-07-31T17:05:33;1.80;;;1.23;;
59828;SDS011;45708;51.848;107.620;2023-07-31T17:10:34;2.25;;;1.92;;
59828;SDS011;45708;51.848;107.620;2023-07-31T17:15:35;1.90;;;1.33;;
59828;SDS011;45708;51.848;107.620;2023-07-31T17:20:36;2.30;;;1.50;;
59828;SDS011;45708;51.848;107.620;2023-07-31T17:25:37;2.72;;;1.50;;
59828;SDS011;45708;51.848;107.620;2023-07-31T17:30:38;6.35;;;1.88;;
59828;SDS011;45708;51.848;107.620;2023-07-31T17:35:39;1.50;;;1.35;;
59828;SDS011;45708;51.848;107.620;2023-07-31T17:40:40;5.53;;;2.13;;
59828;SDS011;45708;51.848;107.620;2023-07-31T17:45:41;1.65;;;1.55;;
59828;SDS011;45708;51.848;107.620;2023-07-31T17:50:42;2.08;;;1.48;;
59828;SDS011;45708;51.848;107.620;2023-07-31T17:55:42;1.63;;;1.42;;
59828;SDS011;45708;51.848;107.620;2023-07-31T18:00:43;1.85;;;1.27;;
59828;SDS011;45708;51.848;107.620;2023-07-31T18:05:44;2.38;;;1.58;;
59828;SDS011;45708;51.848;107.620;2023-07-31T18:10:45;6.88;;;1.83;;
59828;SDS011;45708;51.848;107.620;2023-07-31T18:15:47;3.08;;;1.17;;
59828;SDS011;45708;51.848;107.620;2023-07-31T18:20:48;1.75;;;1.45;;
59828;SDS011;45708;51.848;107.620;2023-07-31T18:25:48;2.95;;;1.70;;
59828;SDS011;45708;51.848;107.620;2023-07-31T18:30:49;5.60;;;1.50;;
59828;SDS011;45708;51.848;107.620;2023-07-31T18:35:55;4.55;;;2.00;;
59828;SDS011;45708;51.848;107.620;2023-07-31T18:40:56;2.83;;;2.50;;
59828;SDS011;45708;51.848;107.620;2023-07-31T18:45:56;2.13;;;1.63;;
59828;SDS011;45708;51.848;107.620;2023-07-31T18:50:57;5.93;;;2.15;;
59828;SDS011;45708;51.848;107.620;2023-07-31T18:55:58;5.07;;;2.60;;
59828;SDS011;45708;51.848;107.620;2023-07-31T19:00:59;4.82;;;2.33;;
59828;SDS011;45708;51.848;107.620;2023-07-31T19:06:03;3.92;;;2.35;;
59828;SDS011;45708;51.848;107.620;2023-07-31T19:11:04;2.33;;;1.90;;
59828;SDS011;45708;51.848;107.620;2023-07-31T19:16:05;2.33;;;1.98;;
59828;SDS011;45708;51.848;107.620;2023-07-31T19:21:06;1.45;;;1.30;;
59828;SDS011;45708;51.848;107.620;2023-07-31T19:26:06;5.07;;;1.65;;
59828;SDS011;45708;51.848;107.620;2023-07-31T19:31:07;1.98;;;1.80;;
59828;SDS011;45708;51.848;107.620;2023-07-31T19:36:08;2.63;;;1.73;;
59828;SDS011;45708;51.848;107.620;2023-07-31T19:41:09;3.38;;;2.95;;
59828;SDS011;45708;51.848;107.620;2023-07-31T19:46:10;3.30;;;2.67;;
59828;SDS011;45708;51.848;107.620;2023-07-31T19:51:12;3.05;;;2.20;;
59828;SDS011;45708;51.848;107.620;2023-07-31T19:56:13;5.32;;;2.75;;
59828;SDS011;45708;51.848;107.620;2023-07-31T20:01:13;4.88;;;2.50;;
59828;SDS011;45708;51.848;107.620;2023-07-31T20:06:14;3.72;;;2.40;;
59828;SDS011;45708;51.848;107.620;2023-07-31T20:11:15;5.32;;;2.75;;
59828;SDS011;45708;51.848;107.620;2023-07-31T20:16:19;2.50;;;2.25;;
59828;SDS011;45708;51.848;107.620;2023-07-31T20:21:20;6.10;;;2.75;;
59828;SDS011;45708;51.848;107.620;2023-07-31T20:26:21;4.10;;;2.15;;
59828;SDS011;45708;51.848;107.620;2023-07-31T20:31:22;4.15;;;2.65;;
59828;SDS011;45708;51.848;107.620;2023-07-31T20:36:22;2.22;;;2.03;;
59828;SDS011;45708;51.848;107.620;2023-07-31T20:41:23;3.05;;;2.40;;
59828;SDS011;45708;51.848;107.620;2023-07-31T20:46:24;5.30;;;2.63;;
59828;SDS011;45708;51.848;107.620;2023-07-31T20:51:25;5.47;;;2.03;;
59828;SDS011;45708;51.848;107.620;2023-07-31T20:56:25;1.25;;;1.17;;
59828;SDS011;45708;51.848;107.620;2023-07-31T21:01:26;2.33;;;1.60;;
59828;SDS011;45708;51.848;107.620;2023-07-31T21:06:27;3.17;;;1.70;;
59828;SDS011;45708;51.848;107.620;2023-07-31T21:11:28;2.63;;;1.67;;
59828;SDS011;45708;51.848;107.620;2023-07-31T21:16:29;3.83;;;2.22;;
59828;SDS011;45708;51.848;107.620;2023-07-31T21:21:30;3.90;;;2.78;;
59828;SDS011;45708;51.848;107.620;2023-07-31T21:26:31;3.08;;;2.75;;
59828;SDS011;45708;51.848;107.620;2023-07-31T21:31:32;3.83;;;2.42;;
59828;SDS011;45708;51.848;107.620;2023-07-31T21:36:32;5.55;;;3.90;;
59828;SDS011;45708;51.848;107.620;2023-07-31T21:41:33;4.80;;;3.00;;
59828;SDS011;45708;51.848;107.620;2023-07-31T21:46:34;8.70;;;3.53;;
59828;SDS011;45708;51.848;107.620;2023-07-31T21:51:35;4.82;;;2.90;;
59828;SDS011;45708;51.848;107.620;2023-07-31T21:56:36;4.03;;;3.58;;
59828;SDS011;45708;51.848;107.620;2023-07-31T22:01:36;4.93;;;4.30;;
59828;SDS011;45708;51.848;107.620;2023-07-31T22:06:37;5.80;;;4.18;;
59828;SDS011;45708;51.848;107.620;2023-07-31T22:11:38;3.85;;;3.50;;
59828;SDS011;45708;51.848;107.620;2023-07-31T22:16:39;4.35;;;3.83;;
59828;SDS011;45708;51.848;107.620;2023-07-31T22:21:39;3.42;;;2.40;;
59828;SDS011;45708;51.848;107.620;2023-07-31T22:26:40;6.20;;;2.97;;
59828;SDS011;45708;51.848;107.620;2023-07-31T22:31:41;5.18;;;3.03;;
59828;SDS011;45708;51.848;107.620;2023-07-31T22:36:42;4.65;;;3.65;;
59828;SDS011;45708;51.848;107.620;2023-07-31T22:41:43;4.45;;;3.28;;
59828;SDS011;45708;51.848;107.620;2023-07-31T22:46:43;11.35;;;5.38;;
59828;SDS011;45708;51.848;107.620;2023-07-31T22:51:44;6.57;;;4.57;;
59828;SDS011;45708;51.848;107.620;2023-07-31T22:56:45;5.07;;;4.03;;
59828;SDS011;45708;51.848;107.620;2023-07-31T23:01:46;9.23;;;3.92;;
59828;SDS011;45708;51.848;107.620;2023-07-31T23:06:46;8.68;;;4.28;;
59828;SDS011;45708;51.848;107.620;2023-07-31T23:11:47;9.48;;;4.45;;
59828;SDS011;45708;51.848;107.620;2023-07-31T23:16:48;7.35;;;4.25;;
59828;SDS011;45708;51.848;107.620;2023-07-31T23:21:49;4.85;;;3.03;;
59828;SDS011;45708;51.848;107.620;2023-07-31T23:26:50;10.85;;;4.45;;
59828;SDS011;45708;51.848;107.620;2023-07-31T23:31:51;9.10;;;5.35;;
59828;SDS011;45708;51.848;107.620;2023-07-31T23:36:51;9.13;;;5.20;;
59828;SDS011;45708;51.848;107.620;2023-07-31T23:41:52;8.60;;;3.90;;
59828;SDS011;45708;51.848;107.620;2023-07-31T23:46:53;4.07;;;2.83;;
59828;SDS011;45708;51.848;107.620;2023-07-31T23:51:54;8.32;;;3.47;;
59828;SDS011;45708;51.848;107.620;2023-07-31T23:56:54;6.82;;;3.60;;
